sensor_id;sensor_type;location;lat;lon;timestamp;temperature;humidity
10980;DHT22;5543;51.734;8.744;2023-03-14T00:01:36;11.30;99.90
10980;DHT22;5543;51.734;8.744;2023-03-14T00:04:04;11.30;99.90
10980;DHT22;5543;51.734;8.744;2023-03-14T00:06:32;11.40;99.90
10980;DHT22;5543;51.734;8.744;2023-03-14T00:09:02;11.30;99.90
10980;DHT22;5543;51.734;8.744;2023-03-14T00:11:30;11.30;99.90
10980;DHT22;5543;51.734;8.744;2023-03-14T00:13:58;11.30;99.90
10980;DHT22;5543;51.734;8.744;2023-03-14T00:16:28;11.30;99.90
10980;DHT22;5543;51.734;8.744;2023-03-14T00:18:58;11.30;99.90
10980;DHT22;5543;51.734;8.744;2023-03-14T00:21:27;11.20;99.90
10980;DHT22;5543;51.734;8.744;2023-03-14T00:23:55;11.20;99.90
10980;DHT22;5543;51.734;8.744;2023-03-14T00:26:23;11.40;99.90
10980;DHT22;5543;51.734;8.744;2023-03-14T00:28:52;11.40;99.90
10980;DHT22;5543;51.734;8.744;2023-03-14T00:31:21;11.40;99.90
10980;DHT22;5543;51.734;8.744;2023-03-14T00:33:52;11.50;99.90
10980;DHT22;5543;51.734;8.744;2023-03-14T00:36:21;11.50;99.90
10980;DHT22;5543;51.734;8.744;2023-03-14T00:38:51;11.40;99.90
10980;DHT22;5543;51.734;8.744;2023-03-14T00:41:21;11.30;99.90
10980;DHT22;5543;51.734;8.744;2023-03-14T00:43:50;11.30;99.90
10980;DHT22;5543;51.734;8.744;2023-03-14T00:46:18;11.40;99.90
10980;DHT22;5543;51.734;8.744;2023-03-14T00:48:47;11.40;99.90
10980;DHT22;5543;51.734;8.744;2023-03-14T00:51:16;11.30;99.90
10980;DHT22;5543;51.734;8.744;2023-03-14T00:53:44;11.40;99.90
10980;DHT22;5543;51.734;8.744;2023-03-14T00:56:13;11.30;99.90
10980;DHT22;5543;51.734;8.744;2023-03-14T00:58:41;11.60;99.90
10980;DHT22;5543;51.734;8.744;2023-03-14T01:01:12;11.30;99.90
10980;DHT22;5543;51.734;8.744;2023-03-14T01:03:41;11.20;99.90
10980;DHT22;5543;51.734;8.744;2023-03-14T01:06:11;11.20;99.90
10980;DHT22;5543;51.734;8.744;2023-03-14T01:08:41;11.30;99.90
10980;DHT22;5543;51.734;8.744;2023-03-14T01:11:12;11.40;99.90
10980;DHT22;5543;51.734;8.744;2023-03-14T01:13:40;11.40;99.90
10980;DHT22;5543;51.734;8.744;2023-03-14T01:16:11;11.60;99.90
10980;DHT22;5543;51.734;8.744;2023-03-14T01:18:40;11.60;99.90
10980;DHT22;5543;51.734;8.744;2023-03-14T01:21:12;11.60;99.90
10980;DHT22;5543;51.734;8.744;2023-03-14T01:23:42;11.60;99.90
10980;DHT22;5543;51.734;8.744;2023-03-14T01:26:11;11.60;99.90
10980;DHT22;5543;51.734;8.744;2023-03-14T01:28:39;11.60;99.90
10980;DHT22;5543;51.734;8.744;2023-03-14T01:31:09;11.60;99.90
10980;DHT22;5543;51.734;8.744;2023-03-14T01:33:38;11.50;99.90
10980;DHT22;5543;51.734;8.744;2023-03-14T01:36:07;11.60;99.90
10980;DHT22;5543;51.734;8.744;2023-03-14T01:38:37;11.60;99.90
10980;DHT22;5543;51.734;8.744;2023-03-14T01:41:09;11.50;99.90
10980;DHT22;5543;51.734;8.744;2023-03-14T01:43:39;11.50;99.90
10980;DHT22;5543;51.734;8.744;2023-03-14T01:46:26;11.50;99.90
10980;DHT22;5543;51.734;8.744;2023-03-14T01:49:01;11.50;99.90
10980;DHT22;5543;51.734;8.744;2023-03-14T01:51:36;11.60;99.90
10980;DHT22;5543;51.734;8.744;2023-03-14T01:54:11;11.50;99.90
10980;DHT22;5543;51.734;8.744;2023-03-14T01:56:44;11.40;99.90
10980;DHT22;5543;51.734;8.744;2023-03-14T01:59:13;11.50;99.90
10980;DHT22;5543;51.734;8.744;2023-03-14T02:01:43;11.50;99.90
10980;DHT22;5543;51.734;8.744;2023-03-14T02:04:13;11.50;99.90
10980;DHT22;5543;51.734;8.744;2023-03-14T02:06:50;11.60;99.90
10980;DHT22;5543;51.734;8.744;2023-03-14T02:09:19;11.60;99.90
10980;DHT22;5543;51.734;8.744;2023-03-14T02:11:49;11.60;99.90
10980;DHT22;5543;51.734;8.744;2023-03-14T02:14:27;11.50;99.90
10980;DHT22;5543;51.734;8.744;2023-03-14T02:16:56;11.50;99.90
10980;DHT22;5543;51.734;8.744;2023-03-14T02:19:34;11.50;99.90
10980;DHT22;5543;51.734;8.744;2023-03-14T02:22:07;11.40;99.90
10980;DHT22;5543;51.734;8.744;2023-03-14T02:24:43;11.50;99.90
10980;DHT22;5543;51.734;8.744;2023-03-14T02:27:16;11.60;99.90
10980;DHT22;5543;51.734;8.744;2023-03-14T02:29:49;11.40;99.90
10980;DHT22;5543;51.734;8.744;2023-03-14T02:32:20;11.50;99.90
10980;DHT22;5543;51.734;8.744;2023-03-14T02:34:53;11.60;99.90
10980;DHT22;5543;51.734;8.744;2023-03-14T02:37:24;11.60;99.90
10980;DHT22;5543;51.734;8.744;2023-03-14T02:39:53;11.70;99.90
10980;DHT22;5543;51.734;8.744;2023-03-14T02:42:23;11.50;99.90
10980;DHT22;5543;51.734;8.744;2023-03-14T02:44:53;11.40;99.90
10980;DHT22;5543;51.734;8.744;2023-03-14T02:47:27;11.50;99.90
10980;DHT22;5543;51.734;8.744;2023-03-14T02:49:59;11.30;99.90
10980;DHT22;5543;51.734;8.744;2023-03-14T02:52:28;11.20;99.90
10980;DHT22;5543;51.734;8.744;2023-03-14T02:54:56;11.40;99.90
10980;DHT22;5543;51.734;8.744;2023-03-14T02:57:25;10.90;99.90
10980;DHT22;5543;51.734;8.744;2023-03-14T02:59:53;10.40;99.90
10980;DHT22;5543;51.734;8.744;2023-03-14T03:02:21;9.90;99.90
10980;DHT22;5543;51.734;8.744;2023-03-14T03:04:49;9.40;99.90
10980;DHT22;5543;51.734;8.744;2023-03-14T03:07:17;9.00;99.90
10980;DHT22;5543;51.734;8.744;2023-03-14T03:09:46;8.80;99.90
10980;DHT22;5543;51.734;8.744;2023-03-14T03:12:14;8.60;99.90
10980;DHT22;5543;51.734;8.744;2023-03-14T03:14:43;8.60;99.90
10980;DHT22;5543;51.734;8.744;2023-03-14T03:17:11;8.50;99.90
10980;DHT22;5543;51.734;8.744;2023-03-14T03:19:39;8.40;99.90
10980;DHT22;5543;51.734;8.744;2023-03-14T03:22:07;8.30;99.90
10980;DHT22;5543;51.734;8.744;2023-03-14T03:24:35;8.50;99.90
10980;DHT22;5543;51.734;8.744;2023-03-14T03:27:03;8.20;99.90
10980;DHT22;5543;51.734;8.744;2023-03-14T03:29:31;8.10;99.90
10980;DHT22;5543;51.734;8.744;2023-03-14T03:32:00;8.10;99.90
10980;DHT22;5543;51.734;8.744;2023-03-14T03:34:29;8.10;99.90
10980;DHT22;5543;51.734;8.744;2023-03-14T03:36:57;8.00;99.90
10980;DHT22;5543;51.734;8.744;2023-03-14T03:39:25;8.00;99.90
10980;DHT22;5543;51.734;8.744;2023-03-14T03:41:53;8.00;99.90
10980;DHT22;5543;51.734;8.744;2023-03-14T03:44:21;8.00;99.90
10980;DHT22;5543;51.734;8.744;2023-03-14T03:46:49;8.00;99.90
10980;DHT22;5543;51.734;8.744;2023-03-14T03:49:18;8.00;99.90
10980;DHT22;5543;51.734;8.744;2023-03-14T03:51:46;8.00;99.90
10980;DHT22;5543;51.734;8.744;2023-03-14T03:54:14;8.20;99.90
10980;DHT22;5543;51.734;8.744;2023-03-14T03:56:42;8.20;99.90
10980;DHT22;5543;51.734;8.744;2023-03-14T03:59:10;8.30;99.90
10980;DHT22;5543;51.734;8.744;2023-03-14T04:01:38;8.30;99.90
10980;DHT22;5543;51.734;8.744;2023-03-14T04:04:07;8.30;99.90
10980;DHT22;5543;51.734;8.744;2023-03-14T04:06:37;8.60;99.90
10980;DHT22;5543;51.734;8.744;2023-03-14T04:09:05;8.40;99.90
10980;DHT22;5543;51.734;8.744;2023-03-14T04:11:33;8.40;99.90
10980;DHT22;5543;51.734;8.744;2023-03-14T04:14:01;8.50;99.90
10980;DHT22;5543;51.734;8.744;2023-03-14T04:16:29;8.80;99.90
10980;DHT22;5543;51.734;8.744;2023-03-14T04:19:00;8.50;99.90
10980;DHT22;5543;51.734;8.744;2023-03-14T04:21:28;8.60;99.90
10980;DHT22;5543;51.734;8.744;2023-03-14T04:23:57;8.60;99.90
10980;DHT22;5543;51.734;8.744;2023-03-14T04:26:25;8.60;99.90
10980;DHT22;5543;51.734;8.744;2023-03-14T04:28:53;8.60;99.90
10980;DHT22;5543;51.734;8.744;2023-03-14T04:31:22;8.50;99.90
10980;DHT22;5543;51.734;8.744;2023-03-14T04:33:50;8.60;99.90
10980;DHT22;5543;51.734;8.744;2023-03-14T04:36:19;8.70;99.90
10980;DHT22;5543;51.734;8.744;2023-03-14T04:38:46;8.70;99.90
10980;DHT22;5543;51.734;8.744;2023-03-14T04:41:16;8.70;99.90
10980;DHT22;5543;51.734;8.744;2023-03-14T04:43:44;8.70;99.90
10980;DHT22;5543;51.734;8.744;2023-03-14T04:46:12;8.60;99.90
10980;DHT22;5543;51.734;8.744;2023-03-14T04:48:40;8.50;99.90
10980;DHT22;5543;51.734;8.744;2023-03-14T04:51:08;8.50;99.90
10980;DHT22;5543;51.734;8.744;2023-03-14T04:53:36;8.60;99.90
10980;DHT22;5543;51.734;8.744;2023-03-14T04:56:05;8.60;99.90
10980;DHT22;5543;51.734;8.744;2023-03-14T04:58:35;8.60;99.90
10980;DHT22;5543;51.734;8.744;2023-03-14T05:01:03;8.60;99.90
10980;DHT22;5543;51.734;8.744;2023-03-14T05:03:32;8.60;99.90
10980;DHT22;5543;51.734;8.744;2023-03-14T05:06:00;8.70;99.90
10980;DHT22;5543;51.734;8.744;2023-03-14T05:08:28;8.90;99.90
10980;DHT22;5543;51.734;8.744;2023-03-14T05:10:57;8.80;99.90
10980;DHT22;5543;51.734;8.744;2023-03-14T05:13:25;8.80;99.90
10980;DHT22;5543;51.734;8.744;2023-03-14T05:16:04;8.90;99.90
10980;DHT22;5543;51.734;8.744;2023-03-14T05:18:32;8.80;99.90
10980;DHT22;5543;51.734;8.744;2023-03-14T05:21:00;8.90;99.90
10980;DHT22;5543;51.734;8.744;2023-03-14T05:23:28;8.90;99.90
10980;DHT22;5543;51.734;8.744;2023-03-14T05:25:57;9.00;99.90
10980;DHT22;5543;51.734;8.744;2023-03-14T05:28:25;8.90;99.90
10980;DHT22;5543;51.734;8.744;2023-03-14T05:30:54;8.70;99.90
10980;DHT22;5543;51.734;8.744;2023-03-14T05:33:23;8.70;99.90
10980;DHT22;5543;51.734;8.744;2023-03-14T05:35:51;8.70;99.90
10980;DHT22;5543;51.734;8.744;2023-03-14T05:38:19;8.80;99.90
10980;DHT22;5543;51.734;8.744;2023-03-14T05:40:48;8.60;99.90
10980;DHT22;5543;51.734;8.744;2023-03-14T05:43:16;8.60;99.90
10980;DHT22;5543;51.734;8.744;2023-03-14T05:45:44;8.60;99.90
10980;DHT22;5543;51.734;8.744;2023-03-14T05:48:14;8.60;99.90
10980;DHT22;5543;51.734;8.744;2023-03-14T05:50:43;8.60;99.90
10980;DHT22;5543;51.734;8.744;2023-03-14T05:53:11;8.60;99.90
10980;DHT22;5543;51.734;8.744;2023-03-14T05:55:39;8.60;99.90
10980;DHT22;5543;51.734;8.744;2023-03-14T05:58:07;8.50;99.90
10980;DHT22;5543;51.734;8.744;2023-03-14T06:00:35;8.60;99.90
10980;DHT22;5543;51.734;8.744;2023-03-14T06:03:03;8.60;99.90
10980;DHT22;5543;51.734;8.744;2023-03-14T06:05:34;8.60;99.90
10980;DHT22;5543;51.734;8.744;2023-03-14T06:08:03;8.60;99.90
10980;DHT22;5543;51.734;8.744;2023-03-14T06:10:31;8.60;99.90
10980;DHT22;5543;51.734;8.744;2023-03-14T06:12:59;8.60;99.90
10980;DHT22;5543;51.734;8.744;2023-03-14T06:15:27;8.60;99.90
10980;DHT22;5543;51.734;8.744;2023-03-14T06:17:55;8.60;99.90
10980;DHT22;5543;51.734;8.744;2023-03-14T06:20:23;8.60;99.90
10980;DHT22;5543;51.734;8.744;2023-03-14T06:22:53;8.60;99.90
10980;DHT22;5543;51.734;8.744;2023-03-14T06:25:21;8.70;99.90
10980;DHT22;5543;51.734;8.744;2023-03-14T06:27:49;8.70;99.90
10980;DHT22;5543;51.734;8.744;2023-03-14T06:30:17;8.80;99.90
10980;DHT22;5543;51.734;8.744;2023-03-14T06:32:45;8.80;99.90
10980;DHT22;5543;51.734;8.744;2023-03-14T06:35:13;8.90;99.90
10980;DHT22;5543;51.734;8.744;2023-03-14T06:37:42;8.90;99.90
10980;DHT22;5543;51.734;8.744;2023-03-14T06:40:12;9.00;99.90
10980;DHT22;5543;51.734;8.744;2023-03-14T06:42:43;9.00;99.90
10980;DHT22;5543;51.734;8.744;2023-03-14T06:45:12;9.10;99.90
10980;DHT22;5543;51.734;8.744;2023-03-14T06:47:40;9.10;99.90
10980;DHT22;5543;51.734;8.744;2023-03-14T06:50:09;9.20;99.90
10980;DHT22;5543;51.734;8.744;2023-03-14T06:52:37;9.30;99.90
10980;DHT22;5543;51.734;8.744;2023-03-14T06:55:08;9.30;99.90
10980;DHT22;5543;51.734;8.744;2023-03-14T06:57:37;9.40;99.90
10980;DHT22;5543;51.734;8.744;2023-03-14T07:00:07;9.40;99.90
10980;DHT22;5543;51.734;8.744;2023-03-14T07:02:35;9.50;99.90
10980;DHT22;5543;51.734;8.744;2023-03-14T07:05:09;9.50;99.90
10980;DHT22;5543;51.734;8.744;2023-03-14T07:07:37;9.60;99.90
10980;DHT22;5543;51.734;8.744;2023-03-14T07:10:06;9.60;99.90
10980;DHT22;5543;51.734;8.744;2023-03-14T07:12:37;9.70;99.90
10980;DHT22;5543;51.734;8.744;2023-03-14T07:15:05;9.80;99.90
10980;DHT22;5543;51.734;8.744;2023-03-14T07:17:44;9.80;99.90
10980;DHT22;5543;51.734;8.744;2023-03-14T07:20:15;9.80;99.90
10980;DHT22;5543;51.734;8.744;2023-03-14T07:22:43;9.80;99.90
10980;DHT22;5543;51.734;8.744;2023-03-14T07:25:11;9.80;99.90
10980;DHT22;5543;51.734;8.744;2023-03-14T07:27:42;9.90;99.90
10980;DHT22;5543;51.734;8.744;2023-03-14T07:30:11;9.90;99.90
10980;DHT22;5543;51.734;8.744;2023-03-14T07:32:40;10.00;99.90
10980;DHT22;5543;51.734;8.744;2023-03-14T07:35:09;9.90;99.90
10980;DHT22;5543;51.734;8.744;2023-03-14T07:37:37;9.90;99.90
10980;DHT22;5543;51.734;8.744;2023-03-14T07:40:06;9.90;99.90
10980;DHT22;5543;51.734;8.744;2023-03-14T07:42:34;10.00;99.90
10980;DHT22;5543;51.734;8.744;2023-03-14T07:45:05;10.00;99.90
10980;DHT22;5543;51.734;8.744;2023-03-14T07:47:33;10.00;99.90
10980;DHT22;5543;51.734;8.744;2023-03-14T07:50:01;9.90;99.90
10980;DHT22;5543;51.734;8.744;2023-03-14T07:52:36;9.90;99.90
10980;DHT22;5543;51.734;8.744;2023-03-14T07:55:05;9.90;99.90
10980;DHT22;5543;51.734;8.744;2023-03-14T07:57:33;10.10;99.90
10980;DHT22;5543;51.734;8.744;2023-03-14T08:00:01;10.10;99.90
10980;DHT22;5543;51.734;8.744;2023-03-14T08:02:31;10.20;99.90
10980;DHT22;5543;51.734;8.744;2023-03-14T08:04:59;10.30;99.90
10980;DHT22;5543;51.734;8.744;2023-03-14T08:07:27;10.30;99.90
10980;DHT22;5543;51.734;8.744;2023-03-14T08:09:55;10.40;99.90
10980;DHT22;5543;51.734;8.744;2023-03-14T08:12:23;10.50;99.90
10980;DHT22;5543;51.734;8.744;2023-03-14T08:14:51;10.60;99.90
10980;DHT22;5543;51.734;8.744;2023-03-14T08:17:20;10.70;99.90
10980;DHT22;5543;51.734;8.744;2023-03-14T08:19:49;10.70;99.90
10980;DHT22;5543;51.734;8.744;2023-03-14T08:22:17;10.70;99.90
10980;DHT22;5543;51.734;8.744;2023-03-14T08:24:46;10.90;99.90
10980;DHT22;5543;51.734;8.744;2023-03-14T08:27:14;11.00;99.90
10980;DHT22;5543;51.734;8.744;2023-03-14T08:29:42;11.10;99.90
10980;DHT22;5543;51.734;8.744;2023-03-14T08:32:10;11.20;99.90
10980;DHT22;5543;51.734;8.744;2023-03-14T08:34:39;11.20;99.90
10980;DHT22;5543;51.734;8.744;2023-03-14T08:37:08;11.30;99.90
10980;DHT22;5543;51.734;8.744;2023-03-14T08:39:52;11.50;99.90
10980;DHT22;5543;51.734;8.744;2023-03-14T08:42:20;11.50;99.90
10980;DHT22;5543;51.734;8.744;2023-03-14T08:44:48;11.60;99.90
10980;DHT22;5543;51.734;8.744;2023-03-14T08:47:16;11.60;99.90
10980;DHT22;5543;51.734;8.744;2023-03-14T08:49:44;11.60;99.90
10980;DHT22;5543;51.734;8.744;2023-03-14T08:52:14;11.70;99.90
10980;DHT22;5543;51.734;8.744;2023-03-14T08:54:45;11.60;99.90
10980;DHT22;5543;51.734;8.744;2023-03-14T08:57:13;11.60;99.90
10980;DHT22;5543;51.734;8.744;2023-03-14T08:59:41;11.90;99.90
10980;DHT22;5543;51.734;8.744;2023-03-14T09:02:11;12.00;99.90
10980;DHT22;5543;51.734;8.744;2023-03-14T09:04:39;12.10;99.90
10980;DHT22;5543;51.734;8.744;2023-03-14T09:07:07;12.10;99.90
10980;DHT22;5543;51.734;8.744;2023-03-14T09:09:37;12.20;99.90
10980;DHT22;5543;51.734;8.744;2023-03-14T09:12:05;12.40;99.90
10980;DHT22;5543;51.734;8.744;2023-03-14T09:14:33;12.40;99.90
10980;DHT22;5543;51.734;8.744;2023-03-14T09:17:03;12.60;99.90
10980;DHT22;5543;51.734;8.744;2023-03-14T09:19:31;12.40;99.90
10980;DHT22;5543;51.734;8.744;2023-03-14T09:21:59;12.40;99.90
10980;DHT22;5543;51.734;8.744;2023-03-14T09:24:27;12.40;99.90
10980;DHT22;5543;51.734;8.744;2023-03-14T09:26:57;12.50;99.90
10980;DHT22;5543;51.734;8.744;2023-03-14T09:29:25;12.50;99.90
10980;DHT22;5543;51.734;8.744;2023-03-14T09:31:53;12.40;99.90
10980;DHT22;5543;51.734;8.744;2023-03-14T09:34:21;12.50;99.90
10980;DHT22;5543;51.734;8.744;2023-03-14T09:36:49;12.80;99.90
10980;DHT22;5543;51.734;8.744;2023-03-14T09:39:18;12.90;99.90
10980;DHT22;5543;51.734;8.744;2023-03-14T09:41:48;12.70;99.90
10980;DHT22;5543;51.734;8.744;2023-03-14T09:44:21;12.80;99.90
10980;DHT22;5543;51.734;8.744;2023-03-14T09:46:53;12.80;99.90
10980;DHT22;5543;51.734;8.744;2023-03-14T09:49:25;12.80;99.90
10980;DHT22;5543;51.734;8.744;2023-03-14T09:51:57;12.90;99.90
10980;DHT22;5543;51.734;8.744;2023-03-14T09:54:35;12.90;99.90
10980;DHT22;5543;51.734;8.744;2023-03-14T09:57:05;13.00;99.90
10980;DHT22;5543;51.734;8.744;2023-03-14T09:59:36;12.90;99.90
10980;DHT22;5543;51.734;8.744;2023-03-14T10:02:14;12.90;99.90
10980;DHT22;5543;51.734;8.744;2023-03-14T10:04:45;12.90;99.90
10980;DHT22;5543;51.734;8.744;2023-03-14T10:07:15;12.90;99.90
10980;DHT22;5543;51.734;8.744;2023-03-14T10:09:48;12.80;99.90
10980;DHT22;5543;51.734;8.744;2023-03-14T10:12:17;12.80;99.90
10980;DHT22;5543;51.734;8.744;2023-03-14T10:14:48;12.60;99.90
10980;DHT22;5543;51.734;8.744;2023-03-14T10:17:19;12.60;99.90
10980;DHT22;5543;51.734;8.744;2023-03-14T10:19:52;12.50;99.90
10980;DHT22;5543;51.734;8.744;2023-03-14T10:22:22;12.40;99.90
10980;DHT22;5543;51.734;8.744;2023-03-14T10:24:53;12.40;99.90
10980;DHT22;5543;51.734;8.744;2023-03-14T10:27:27;12.40;99.90
10980;DHT22;5543;51.734;8.744;2023-03-14T10:29:58;12.60;99.90
10980;DHT22;5543;51.734;8.744;2023-03-14T10:32:34;12.70;99.90
10980;DHT22;5543;51.734;8.744;2023-03-14T10:35:20;12.90;99.90
10980;DHT22;5543;51.734;8.744;2023-03-14T10:37:53;12.90;99.90
10980;DHT22;5543;51.734;8.744;2023-03-14T10:40:26;12.90;99.90
10980;DHT22;5543;51.734;8.744;2023-03-14T10:42:55;12.70;99.90
10980;DHT22;5543;51.734;8.744;2023-03-14T10:45:32;12.40;99.90
10980;DHT22;5543;51.734;8.744;2023-03-14T10:48:15;12.30;99.90
10980;DHT22;5543;51.734;8.744;2023-03-14T10:51:02;12.10;99.90
10980;DHT22;5543;51.734;8.744;2023-03-14T10:53:39;11.90;99.90
10980;DHT22;5543;51.734;8.744;2023-03-14T10:56:11;11.60;99.90
10980;DHT22;5543;51.734;8.744;2023-03-14T10:58:42;11.30;99.90
10980;DHT22;5543;51.734;8.744;2023-03-14T11:01:33;11.00;99.90
10980;DHT22;5543;51.734;8.744;2023-03-14T11:04:14;10.60;99.90
10980;DHT22;5543;51.734;8.744;2023-03-14T11:06:46;10.10;99.90
10980;DHT22;5543;51.734;8.744;2023-03-14T11:09:18;9.80;99.90
10980;DHT22;5543;51.734;8.744;2023-03-14T11:11:48;9.60;99.90
10980;DHT22;5543;51.734;8.744;2023-03-14T11:14:23;9.30;99.90
10980;DHT22;5543;51.734;8.744;2023-03-14T11:17:00;9.30;99.90
10980;DHT22;5543;51.734;8.744;2023-03-14T11:19:42;9.20;99.90
10980;DHT22;5543;51.734;8.744;2023-03-14T11:22:20;9.00;99.90
10980;DHT22;5543;51.734;8.744;2023-03-14T11:25:09;8.80;99.90
10980;DHT22;5543;51.734;8.744;2023-03-14T11:27:43;8.60;99.90
10980;DHT22;5543;51.734;8.744;2023-03-14T11:30:18;8.60;99.90
10980;DHT22;5543;51.734;8.744;2023-03-14T11:32:52;8.50;99.90
10980;DHT22;5543;51.734;8.744;2023-03-14T11:35:26;8.50;99.90
10980;DHT22;5543;51.734;8.744;2023-03-14T11:38:05;8.40;99.90
10980;DHT22;5543;51.734;8.744;2023-03-14T11:40:38;8.40;99.90
10980;DHT22;5543;51.734;8.744;2023-03-14T11:43:12;8.50;99.90
10980;DHT22;5543;51.734;8.744;2023-03-14T11:45:42;8.50;99.90
10980;DHT22;5543;51.734;8.744;2023-03-14T11:48:19;8.50;99.90
10980;DHT22;5543;51.734;8.744;2023-03-14T11:50:51;8.20;99.90
10980;DHT22;5543;51.734;8.744;2023-03-14T11:53:24;8.00;99.90
10980;DHT22;5543;51.734;8.744;2023-03-14T11:55:53;7.80;99.90
10980;DHT22;5543;51.734;8.744;2023-03-14T11:58:26;7.70;99.90
10980;DHT22;5543;51.734;8.744;2023-03-14T12:00:57;7.50;99.90
10980;DHT22;5543;51.734;8.744;2023-03-14T12:03:31;7.40;99.90
10980;DHT22;5543;51.734;8.744;2023-03-14T12:06:09;7.40;99.90
10980;DHT22;5543;51.734;8.744;2023-03-14T12:08:47;7.30;99.90
10980;DHT22;5543;51.734;8.744;2023-03-14T12:11:33;7.30;99.90
10980;DHT22;5543;51.734;8.744;2023-03-14T12:14:17;7.20;99.90
10980;DHT22;5543;51.734;8.744;2023-03-14T12:16:47;7.00;99.90
10980;DHT22;5543;51.734;8.744;2023-03-14T12:19:30;6.80;99.90
10980;DHT22;5543;51.734;8.744;2023-03-14T12:22:06;6.60;99.90
10980;DHT22;5543;51.734;8.744;2023-03-14T12:24:36;6.60;99.90
10980;DHT22;5543;51.734;8.744;2023-03-14T12:27:09;6.50;99.90
10980;DHT22;5543;51.734;8.744;2023-03-14T12:29:58;6.40;99.90
10980;DHT22;5543;51.734;8.744;2023-03-14T12:32:30;6.30;99.90
10980;DHT22;5543;51.734;8.744;2023-03-14T12:35:23;6.30;99.90
10980;DHT22;5543;51.734;8.744;2023-03-14T12:37:55;6.30;99.90
10980;DHT22;5543;51.734;8.744;2023-03-14T12:40:31;6.40;99.90
10980;DHT22;5543;51.734;8.744;2023-03-14T12:43:00;6.30;99.90
10980;DHT22;5543;51.734;8.744;2023-03-14T12:45:30;6.30;99.90
10980;DHT22;5543;51.734;8.744;2023-03-14T12:48:09;6.40;99.90
10980;DHT22;5543;51.734;8.744;2023-03-14T12:50:45;6.50;99.90
10980;DHT22;5543;51.734;8.744;2023-03-14T12:56:39;6.50;99.90
10980;DHT22;5543;51.734;8.744;2023-03-14T12:59:28;6.70;99.90
10980;DHT22;5543;51.734;8.744;2023-03-14T13:02:01;6.80;99.90
10980;DHT22;5543;51.734;8.744;2023-03-14T13:04:33;7.10;99.90
10980;DHT22;5543;51.734;8.744;2023-03-14T13:07:11;7.30;99.90
10980;DHT22;5543;51.734;8.744;2023-03-14T13:10:02;7.30;99.90
10980;DHT22;5543;51.734;8.744;2023-03-14T13:12:38;7.40;99.90
10980;DHT22;5543;51.734;8.744;2023-03-14T13:15:22;7.50;99.90
10980;DHT22;5543;51.734;8.744;2023-03-14T13:17:52;7.60;99.90
10980;DHT22;5543;51.734;8.744;2023-03-14T13:20:26;7.70;99.90
10980;DHT22;5543;51.734;8.744;2023-03-14T13:22:57;7.80;99.90
10980;DHT22;5543;51.734;8.744;2023-03-14T13:25:30;7.90;99.90
10980;DHT22;5543;51.734;8.744;2023-03-14T13:28:01;8.00;99.90
10980;DHT22;5543;51.734;8.744;2023-03-14T13:30:38;8.20;99.90
10980;DHT22;5543;51.734;8.744;2023-03-14T13:33:11;8.10;99.90
10980;DHT22;5543;51.734;8.744;2023-03-14T13:35:41;8.10;99.90
10980;DHT22;5543;51.734;8.744;2023-03-14T13:38:18;7.80;99.90
10980;DHT22;5543;51.734;8.744;2023-03-14T13:40:47;7.90;99.90
10980;DHT22;5543;51.734;8.744;2023-03-14T13:43:23;7.80;99.90
10980;DHT22;5543;51.734;8.744;2023-03-14T13:45:55;7.60;99.90
10980;DHT22;5543;51.734;8.744;2023-03-14T13:48:27;7.50;99.90
10980;DHT22;5543;51.734;8.744;2023-03-14T13:50:59;7.30;99.90
10980;DHT22;5543;51.734;8.744;2023-03-14T13:53:30;7.20;99.90
10980;DHT22;5543;51.734;8.744;2023-03-14T13:56:02;7.20;99.90
10980;DHT22;5543;51.734;8.744;2023-03-14T13:58:31;7.00;99.90
10980;DHT22;5543;51.734;8.744;2023-03-14T14:01:05;6.80;99.90
10980;DHT22;5543;51.734;8.744;2023-03-14T14:03:37;6.50;99.90
10980;DHT22;5543;51.734;8.744;2023-03-14T14:06:10;6.20;99.90
10980;DHT22;5543;51.734;8.744;2023-03-14T14:08:41;6.10;99.90
10980;DHT22;5543;51.734;8.744;2023-03-14T14:11:19;5.90;99.90
10980;DHT22;5543;51.734;8.744;2023-03-14T14:13:54;5.90;99.90
10980;DHT22;5543;51.734;8.744;2023-03-14T14:16:25;5.90;99.90
10980;DHT22;5543;51.734;8.744;2023-03-14T14:18:56;6.00;99.90
10980;DHT22;5543;51.734;8.744;2023-03-14T14:21:26;6.20;99.90
10980;DHT22;5543;51.734;8.744;2023-03-14T14:23:58;6.30;99.90
10980;DHT22;5543;51.734;8.744;2023-03-14T14:26:27;6.40;99.90
10980;DHT22;5543;51.734;8.744;2023-03-14T14:29:05;6.40;99.90
10980;DHT22;5543;51.734;8.744;2023-03-14T14:31:34;6.50;99.90
10980;DHT22;5543;51.734;8.744;2023-03-14T14:34:04;6.60;99.90
10980;DHT22;5543;51.734;8.744;2023-03-14T14:36:37;6.70;99.90
10980;DHT22;5543;51.734;8.744;2023-03-14T14:39:13;6.80;99.90
10980;DHT22;5543;51.734;8.744;2023-03-14T14:41:44;6.90;99.90
10980;DHT22;5543;51.734;8.744;2023-03-14T14:44:13;7.10;99.90
10980;DHT22;5543;51.734;8.744;2023-03-14T14:46:42;7.20;99.90
10980;DHT22;5543;51.734;8.744;2023-03-14T14:49:13;7.20;99.90
10980;DHT22;5543;51.734;8.744;2023-03-14T14:51:44;7.20;99.90
10980;DHT22;5543;51.734;8.744;2023-03-14T14:54:19;7.20;99.90
10980;DHT22;5543;51.734;8.744;2023-03-14T14:56:50;7.20;99.90
10980;DHT22;5543;51.734;8.744;2023-03-14T14:59:22;7.30;99.90
10980;DHT22;5543;51.734;8.744;2023-03-14T15:01:55;7.30;99.90
10980;DHT22;5543;51.734;8.744;2023-03-14T15:04:25;7.40;99.90
10980;DHT22;5543;51.734;8.744;2023-03-14T15:06:54;7.50;99.90
10980;DHT22;5543;51.734;8.744;2023-03-14T15:09:24;7.50;99.90
10980;DHT22;5543;51.734;8.744;2023-03-14T15:11:53;7.50;99.90
10980;DHT22;5543;51.734;8.744;2023-03-14T15:14:21;7.40;99.90
10980;DHT22;5543;51.734;8.744;2023-03-14T15:16:50;7.30;99.90
10980;DHT22;5543;51.734;8.744;2023-03-14T15:19:21;7.20;99.90
10980;DHT22;5543;51.734;8.744;2023-03-14T15:21:52;7.10;99.90
10980;DHT22;5543;51.734;8.744;2023-03-14T15:24:21;7.00;99.90
10980;DHT22;5543;51.734;8.744;2023-03-14T15:26:51;6.90;99.90
10980;DHT22;5543;51.734;8.744;2023-03-14T15:29:20;7.00;99.90
10980;DHT22;5543;51.734;8.744;2023-03-14T15:31:48;7.00;99.90
10980;DHT22;5543;51.734;8.744;2023-03-14T15:34:17;7.00;99.90
10980;DHT22;5543;51.734;8.744;2023-03-14T15:36:45;7.10;99.90
10980;DHT22;5543;51.734;8.744;2023-03-14T15:39:13;7.10;99.90
10980;DHT22;5543;51.734;8.744;2023-03-14T15:41:42;7.10;99.90
10980;DHT22;5543;51.734;8.744;2023-03-14T15:44:11;7.10;98.50
10980;DHT22;5543;51.734;8.744;2023-03-14T15:46:40;7.30;98.20
10980;DHT22;5543;51.734;8.744;2023-03-14T15:49:08;7.30;98.60
10980;DHT22;5543;51.734;8.744;2023-03-14T15:51:36;7.40;97.40
10980;DHT22;5543;51.734;8.744;2023-03-14T15:54:05;7.30;98.40
10980;DHT22;5543;51.734;8.744;2023-03-14T15:56:33;7.30;97.90
10980;DHT22;5543;51.734;8.744;2023-03-14T15:59:01;7.20;97.80
10980;DHT22;5543;51.734;8.744;2023-03-14T16:01:31;7.20;97.50
10980;DHT22;5543;51.734;8.744;2023-03-14T16:04:00;7.30;97.30
10980;DHT22;5543;51.734;8.744;2023-03-14T16:06:29;7.00;96.70
10980;DHT22;5543;51.734;8.744;2023-03-14T16:08:58;6.90;97.20
10980;DHT22;5543;51.734;8.744;2023-03-14T16:11:26;6.80;96.50
10980;DHT22;5543;51.734;8.744;2023-03-14T16:13:55;6.80;97.20
10980;DHT22;5543;51.734;8.744;2023-03-14T16:16:23;6.70;97.40
10980;DHT22;5543;51.734;8.744;2023-03-14T16:18:52;6.60;96.90
10980;DHT22;5543;51.734;8.744;2023-03-14T16:21:22;6.50;96.70